sensor_id;sensor_type;location;lat;lon;timestamp;P1;durP1;ratioP1;P2;durP2;ratioP2
56413;SDS011;42318;48.452;19.526;2023-04-03T00:04:36;2.60;;;1.35;;
56413;SDS011;42318;48.452;19.526;2023-04-03T00:12:07;2.90;;;1.40;;
56413;SDS011;42318;48.452;19.526;2023-04-03T00:19:38;2.40;;;1.60;;
56413;SDS011;42318;48.452;19.526;2023-04-03T00:27:09;1.92;;;1.40;;
56413;SDS011;42318;48.452;19.526;2023-04-03T00:34:39;2.60;;;1.40;;
56413;SDS011;42318;48.452;19.526;2023-04-03T00:42:10;2.33;;;1.35;;
56413;SDS011;42318;48.452;19.526;2023-04-03T00:49:41;1.65;;;1.10;;
56413;SDS011;42318;48.452;19.526;2023-04-03T00:57:13;2.77;;;1.37;;
56413;SDS011;42318;48.452;19.526;2023-04-03T01:04:45;2.15;;;1.20;;
56413;SDS011;42318;48.452;19.526;2023-04-03T01:12:24;2.03;;;1.13;;
56413;SDS011;42318;48.452;19.526;2023-04-03T01:27:47;2.20;;;1.40;;
56413;SDS011;42318;48.452;19.526;2023-04-03T01:35:18;2.42;;;1.30;;
56413;SDS011;42318;48.452;19.526;2023-04-03T01:42:49;1.75;;;1.27;;
56413;SDS011;42318;48.452;19.526;2023-04-03T01:50:20;2.05;;;1.40;;
56413;SDS011;42318;48.452;19.526;2023-04-03T01:57:51;2.28;;;1.38;;
56413;SDS011;42318;48.452;19.526;2023-04-03T02:05:21;2.22;;;1.20;;
56413;SDS011;42318;48.452;19.526;2023-04-03T02:12:52;3.85;;;1.00;;
56413;SDS011;42318;48.452;19.526;2023-04-03T02:20:23;1.48;;;1.08;;
56413;SDS011;42318;48.452;19.526;2023-04-03T02:27:54;2.00;;;1.17;;
56413;SDS011;42318;48.452;19.526;2023-04-03T02:35:25;1.70;;;1.10;;
56413;SDS011;42318;48.452;19.526;2023-04-03T02:42:56;2.22;;;1.33;;
56413;SDS011;42318;48.452;19.526;2023-04-03T02:50:26;2.35;;;1.55;;
56413;SDS011;42318;48.452;19.526;2023-04-03T02:57:58;1.67;;;1.02;;
56413;SDS011;42318;48.452;19.526;2023-04-03T03:05:29;1.65;;;1.10;;
56413;SDS011;42318;48.452;19.526;2023-04-03T03:13:00;1.53;;;1.20;;
56413;SDS011;42318;48.452;19.526;2023-04-03T03:20:31;1.70;;;1.08;;
56413;SDS011;42318;48.452;19.526;2023-04-03T03:28:02;2.17;;;1.02;;
56413;SDS011;42318;48.452;19.526;2023-04-03T03:35:33;2.08;;;1.00;;
56413;SDS011;42318;48.452;19.526;2023-04-03T03:43:03;2.90;;;1.40;;
56413;SDS011;42318;48.452;19.526;2023-04-03T03:50:34;1.60;;;1.10;;
56413;SDS011;42318;48.452;19.526;2023-04-03T03:58:05;1.85;;;1.25;;
56413;SDS011;42318;48.452;19.526;2023-04-03T04:05:36;1.98;;;1.20;;
56413;SDS011;42318;48.452;19.526;2023-04-03T04:13:07;1.13;;;0.80;;
56413;SDS011;42318;48.452;19.526;2023-04-03T04:20:38;2.20;;;1.00;;
56413;SDS011;42318;48.452;19.526;2023-04-03T04:28:08;3.25;;;1.00;;
56413;SDS011;42318;48.452;19.526;2023-04-03T04:35:41;1.58;;;1.00;;
56413;SDS011;42318;48.452;19.526;2023-04-03T04:43:12;1.73;;;1.27;;
56413;SDS011;42318;48.452;19.526;2023-04-03T04:50:45;1.23;;;0.93;;
56413;SDS011;42318;48.452;19.526;2023-04-03T04:58:16;4.45;;;1.15;;
56413;SDS011;42318;48.452;19.526;2023-04-03T05:05:47;2.00;;;0.85;;
56413;SDS011;42318;48.452;19.526;2023-04-03T05:13:17;3.15;;;1.00;;
56413;SDS011;42318;48.452;19.526;2023-04-03T05:20:49;1.48;;;0.93;;
56413;SDS011;42318;48.452;19.526;2023-04-03T05:28:20;1.20;;;0.97;;
56413;SDS011;42318;48.452;19.526;2023-04-03T05:35:51;2.22;;;0.93;;
56413;SDS011;42318;48.452;19.526;2023-04-03T05:43:23;2.10;;;1.17;;
56413;SDS011;42318;48.452;19.526;2023-04-03T05:50:54;1.85;;;0.90;;
56413;SDS011;42318;48.452;19.526;2023-04-03T05:58:25;2.30;;;0.93;;
56413;SDS011;42318;48.452;19.526;2023-04-03T06:05:56;1.73;;;1.08;;
56413;SDS011;42318;48.452;19.526;2023-04-03T06:13:26;2.00;;;1.30;;
56413;SDS011;42318;48.452;19.526;2023-04-03T06:20:57;1.02;;;0.75;;
56413;SDS011;42318;48.452;19.526;2023-04-03T06:28:29;2.20;;;1.05;;
56413;SDS011;42318;48.452;19.526;2023-04-03T06:36:00;1.70;;;0.77;;
56413;SDS011;42318;48.452;19.526;2023-04-03T06:43:35;2.53;;;1.02;;
56413;SDS011;42318;48.452;19.526;2023-04-03T06:51:08;1.67;;;1.38;;
56413;SDS011;42318;48.452;19.526;2023-04-03T06:58:47;2.25;;;1.10;;
56413;SDS011;42318;48.452;19.526;2023-04-03T07:06:18;3.22;;;1.20;;
56413;SDS011;42318;48.452;19.526;2023-04-03T07:13:50;3.73;;;0.93;;
56413;SDS011;42318;48.452;19.526;2023-04-03T07:21:20;3.10;;;1.10;;
56413;SDS011;42318;48.452;19.526;2023-04-03T07:28:51;3.92;;;1.00;;
56413;SDS011;42318;48.452;19.526;2023-04-03T07:36:22;1.45;;;0.80;;
56413;SDS011;42318;48.452;19.526;2023-04-03T07:43:53;2.50;;;0.75;;
56413;SDS011;42318;48.452;19.526;2023-04-03T07:51:25;2.83;;;0.90;;
56413;SDS011;42318;48.452;19.526;2023-04-03T07:58:57;3.07;;;1.00;;
56413;SDS011;42318;48.452;19.526;2023-04-03T08:06:28;0.93;;;0.70;;
56413;SDS011;42318;48.452;19.526;2023-04-03T08:14:00;2.28;;;0.90;;
56413;SDS011;42318;48.452;19.526;2023-04-03T08:21:32;5.90;;;1.10;;
56413;SDS011;42318;48.452;19.526;2023-04-03T08:29:03;7.72;;;1.25;;
56413;SDS011;42318;48.452;19.526;2023-04-03T08:36:34;4.55;;;2.13;;
56413;SDS011;42318;48.452;19.526;2023-04-03T08:51:48;9.10;;;2.20;;
56413;SDS011;42318;48.452;19.526;2023-04-03T08:59:31;7.25;;;2.33;;
56413;SDS011;42318;48.452;19.526;2023-04-03T09:07:07;4.20;;;2.28;;
56413;SDS011;42318;48.452;19.526;2023-04-03T09:22:26;9.82;;;2.67;;
56413;SDS011;42318;48.452;19.526;2023-04-03T09:29:58;6.97;;;2.70;;
56413;SDS011;42318;48.452;19.526;2023-04-03T09:37:34;14.68;;;2.40;;
56413;SDS011;42318;48.452;19.526;2023-04-03T09:45:18;4.55;;;2.45;;
56413;SDS011;42318;48.452;19.526;2023-04-03T09:52:55;6.25;;;2.28;;
56413;SDS011;42318;48.452;19.526;2023-04-03T10:00:28;9.25;;;2.83;;
56413;SDS011;42318;48.452;19.526;2023-04-03T10:08:07;4.85;;;2.20;;
56413;SDS011;42318;48.452;19.526;2023-04-03T10:15:42;9.43;;;2.65;;
56413;SDS011;42318;48.452;19.526;2023-04-03T10:47:21;5.43;;;2.08;;
56413;SDS011;42318;48.452;19.526;2023-04-03T11:02:57;5.82;;;2.47;;
56413;SDS011;42318;48.452;19.526;2023-04-03T11:10:41;16.85;;;4.07;;
56413;SDS011;42318;48.452;19.526;2023-04-03T11:18:25;8.65;;;2.92;;
56413;SDS011;42318;48.452;19.526;2023-04-03T11:26:07;5.90;;;3.75;;
56413;SDS011;42318;48.452;19.526;2023-04-03T11:41:37;4.20;;;2.75;;
56413;SDS011;42318;48.452;19.526;2023-04-03T11:49:39;6.32;;;2.30;;
56413;SDS011;42318;48.452;19.526;2023-04-03T11:57:50;3.83;;;2.65;;
56413;SDS011;42318;48.452;19.526;2023-04-03T12:05:33;5.35;;;2.63;;
56413;SDS011;42318;48.452;19.526;2023-04-03T12:13:13;7.03;;;3.13;;
56413;SDS011;42318;48.452;19.526;2023-04-03T12:20:53;6.28;;;3.10;;
56413;SDS011;42318;48.452;19.526;2023-04-03T12:28:26;6.45;;;3.30;;
56413;SDS011;42318;48.452;19.526;2023-04-03T12:36:02;8.13;;;3.60;;
56413;SDS011;42318;48.452;19.526;2023-04-03T12:51:32;8.63;;;3.20;;
56413;SDS011;42318;48.452;19.526;2023-04-03T12:59:19;10.43;;;3.20;;
56413;SDS011;42318;48.452;19.526;2023-04-03T13:06:51;17.02;;;4.68;;
56413;SDS011;42318;48.452;19.526;2023-04-03T13:14:23;6.60;;;3.38;;
56413;SDS011;42318;48.452;19.526;2023-04-03T13:21:59;4.65;;;2.83;;
56413;SDS011;42318;48.452;19.526;2023-04-03T13:29:51;7.50;;;3.25;;
56413;SDS011;42318;48.452;19.526;2023-04-03T13:45:08;7.70;;;3.15;;
56413;SDS011;42318;48.452;19.526;2023-04-03T14:08:21;5.60;;;3.10;;
56413;SDS011;42318;48.452;19.526;2023-04-03T14:15:52;9.63;;;3.85;;
56413;SDS011;42318;48.452;19.526;2023-04-03T14:23:23;7.95;;;3.05;;
56413;SDS011;42318;48.452;19.526;2023-04-03T14:30:53;5.05;;;3.15;;
56413;SDS011;42318;48.452;19.526;2023-04-03T14:38:26;8.75;;;3.28;;
56413;SDS011;42318;48.452;19.526;2023-04-03T14:45:59;5.10;;;3.35;;
56413;SDS011;42318;48.452;19.526;2023-04-03T14:53:30;4.97;;;2.88;;
56413;SDS011;42318;48.452;19.526;2023-04-03T15:01:02;7.38;;;3.05;;
56413;SDS011;42318;48.452;19.526;2023-04-03T15:08:33;4.72;;;3.20;;
56413;SDS011;42318;48.452;19.526;2023-04-03T15:16:05;5.45;;;2.90;;
56413;SDS011;42318;48.452;19.526;2023-04-03T15:23:42;9.50;;;3.30;;
56413;SDS011;42318;48.452;19.526;2023-04-03T15:31:13;3.97;;;2.95;;
56413;SDS011;42318;48.452;19.526;2023-04-03T15:38:44;5.05;;;3.20;;
56413;SDS011;42318;48.452;19.526;2023-04-03T15:46:15;4.85;;;3.00;;
56413;SDS011;42318;48.452;19.526;2023-04-03T15:53:46;4.53;;;3.20;;
56413;SDS011;42318;48.452;19.526;2023-04-03T16:01:17;4.82;;;3.20;;
56413;SDS011;42318;48.452;19.526;2023-04-03T16:08:47;4.10;;;2.70;;
56413;SDS011;42318;48.452;19.526;2023-04-03T16:16:20;4.03;;;3.10;;
56413;SDS011;42318;48.452;19.526;2023-04-03T16:23:51;5.95;;;3.20;;
56413;SDS011;42318;48.452;19.526;2023-04-03T16:31:22;4.53;;;3.00;;
56413;SDS011;42318;48.452;19.526;2023-04-03T16:38:55;4.35;;;2.67;;
56413;SDS011;42318;48.452;19.526;2023-04-03T16:46:26;4.03;;;3.03;;
56413;SDS011;42318;48.452;19.526;2023-04-03T16:53:57;4.70;;;3.00;;
56413;SDS011;42318;48.452;19.526;2023-04-03T17:01:28;4.38;;;3.00;;
56413;SDS011;42318;48.452;19.526;2023-04-03T17:08:59;5.47;;;3.05;;
56413;SDS011;42318;48.452;19.526;2023-04-03T17:16:30;5.07;;;2.70;;
56413;SDS011;42318;48.452;19.526;2023-04-03T17:24:03;4.53;;;2.53;;
56413;SDS011;42318;48.452;19.526;2023-04-03T17:31:38;4.57;;;2.60;;
56413;SDS011;42318;48.452;19.526;2023-04-03T17:39:09;4.80;;;2.88;;
56413;SDS011;42318;48.452;19.526;2023-04-03T17:46:40;4.32;;;2.53;;
56413;SDS011;42318;48.452;19.526;2023-04-03T17:54:11;5.32;;;2.30;;
56413;SDS011;42318;48.452;19.526;2023-04-03T18:01:43;4.25;;;2.80;;
56413;SDS011;42318;48.452;19.526;2023-04-03T18:09:17;4.13;;;2.60;;
56413;SDS011;42318;48.452;19.526;2023-04-03T18:16:50;5.97;;;2.22;;
56413;SDS011;42318;48.452;19.526;2023-04-03T18:24:21;4.40;;;2.40;;
56413;SDS011;42318;48.452;19.526;2023-04-03T18:31:54;8.30;;;2.50;;
56413;SDS011;42318;48.452;19.526;2023-04-03T18:39:26;3.83;;;2.43;;
56413;SDS011;42318;48.452;19.526;2023-04-03T18:46:57;24.45;;;3.33;;
56413;SDS011;42318;48.452;19.526;2023-04-03T18:54:29;4.10;;;2.43;;
56413;SDS011;42318;48.452;19.526;2023-04-03T19:02:01;5.20;;;2.15;;
56413;SDS011;42318;48.452;19.526;2023-04-03T19:09:33;3.55;;;2.15;;
56413;SDS011;42318;48.452;19.526;2023-04-03T19:17:04;5.82;;;2.20;;
56413;SDS011;42318;48.452;19.526;2023-04-03T19:24:37;3.65;;;2.17;;
56413;SDS011;42318;48.452;19.526;2023-04-03T19:32:08;3.97;;;1.75;;
56413;SDS011;42318;48.452;19.526;2023-04-03T19:39:39;4.55;;;2.10;;
56413;SDS011;42318;48.452;19.526;2023-04-03T19:47:10;10.65;;;3.38;;
56413;SDS011;42318;48.452;19.526;2023-04-03T19:54:41;7.65;;;2.80;;
56413;SDS011;42318;48.452;19.526;2023-04-03T20:02:12;9.38;;;3.10;;
56413;SDS011;42318;48.452;19.526;2023-04-03T20:09:43;6.82;;;2.70;;
56413;SDS011;42318;48.452;19.526;2023-04-03T20:17:14;4.03;;;2.30;;
56413;SDS011;42318;48.452;19.526;2023-04-03T20:24:45;5.22;;;3.10;;
56413;SDS011;42318;48.452;19.526;2023-04-03T20:32:16;4.18;;;2.55;;
56413;SDS011;42318;48.452;19.526;2023-04-03T20:39:47;10.05;;;3.38;;
56413;SDS011;42318;48.452;19.526;2023-04-03T20:47:18;8.32;;;2.78;;
56413;SDS011;42318;48.452;19.526;2023-04-03T20:54:49;3.30;;;2.25;;
56413;SDS011;42318;48.452;19.526;2023-04-03T21:02:20;5.72;;;3.25;;
56413;SDS011;42318;48.452;19.526;2023-04-03T21:25:49;4.22;;;2.13;;
56413;SDS011;42318;48.452;19.526;2023-04-03T21:33:20;3.17;;;1.63;;
56413;SDS011;42318;48.452;19.526;2023-04-03T21:40:54;2.78;;;1.98;;
56413;SDS011;42318;48.452;19.526;2023-04-03T21:48:26;4.57;;;2.08;;
56413;SDS011;42318;48.452;19.526;2023-04-03T21:56:00;3.78;;;1.77;;
56413;SDS011;42318;48.452;19.526;2023-04-03T22:03:31;2.58;;;1.75;;
56413;SDS011;42318;48.452;19.526;2023-04-03T22:11:05;2.83;;;1.90;;
56413;SDS011;42318;48.452;19.526;2023-04-03T22:18:36;3.83;;;2.10;;
56413;SDS011;42318;48.452;19.526;2023-04-03T22:26:11;6.40;;;2.00;;
56413;SDS011;42318;48.452;19.526;2023-04-03T22:33:43;3.80;;;1.85;;
56413;SDS011;42318;48.452;19.526;2023-04-03T22:41:15;3.93;;;2.00;;
56413;SDS011;42318;48.452;19.526;2023-04-03T22:48:46;2.65;;;1.90;;
56413;SDS011;42318;48.452;19.526;2023-04-03T22:56:17;3.00;;;1.55;;
56413;SDS011;42318;48.452;19.526;2023-04-03T23:03:48;4.18;;;1.65;;
56413;SDS011;42318;48.452;19.526;2023-04-03T23:11:19;4.70;;;1.50;;
56413;SDS011;42318;48.452;19.526;2023-04-03T23:18:50;11.00;;;1.55;;
56413;SDS011;42318;48.452;19.526;2023-04-03T23:26:21;2.03;;;1.40;;
56413;SDS011;42318;48.452;19.526;2023-04-03T23:33:53;2.57;;;1.60;;
56413;SDS011;42318;48.452;19.526;2023-04-03T23:41:24;2.92;;;1.30;;
56413;SDS011;42318;48.452;19.526;2023-04-03T23:48:54;3.60;;;1.45;;
56413;SDS011;42318;48.452;19.526;2023-04-03T23:56:25;2.88;;;1.35;;
